sensor_id;sensor_type;location;lat;lon;timestamp;pressure;altitude;pressure_sealevel;temperature;humidity
72570;BME280;60594;50.204;8.844;2023-09-19T00:00:39;99375.81;;;16.66;100.00
72570;BME280;60594;50.204;8.844;2023-09-19T00:03:27;99374.06;;;16.73;100.00
72570;BME280;60594;50.204;8.844;2023-09-19T00:05:54;99378.78;;;16.71;100.00
72570;BME280;60594;50.204;8.844;2023-09-19T00:08:21;99376.56;;;16.74;100.00
72570;BME280;60594;50.204;8.844;2023-09-19T00:10:51;99377.56;;;16.73;100.00
72570;BME280;60594;50.204;8.844;2023-09-19T00:13:17;99384.84;;;16.73;100.00
72570;BME280;60594;50.204;8.844;2023-09-19T00:15:47;99382.31;;;16.71;100.00
72570;BME280;60594;50.204;8.844;2023-09-19T00:18:20;99387.53;;;16.73;100.00
72570;BME280;60594;50.204;8.844;2023-09-19T00:20:58;99394.25;;;16.69;100.00
72570;BME280;60594;50.204;8.844;2023-09-19T00:23:24;99388.88;;;16.69;100.00
72570;BME280;60594;50.204;8.844;2023-09-19T00:25:51;99393.13;;;16.63;100.00
72570;BME280;60594;50.204;8.844;2023-09-19T00:28:18;99393.69;;;16.59;100.00
72570;BME280;60594;50.204;8.844;2023-09-19T00:30:46;99394.94;;;16.71;100.00
72570;BME280;60594;50.204;8.844;2023-09-19T00:33:18;99398.47;;;16.71;100.00
72570;BME280;60594;50.204;8.844;2023-09-19T00:35:49;99392.16;;;16.79;100.00
72570;BME280;60594;50.204;8.844;2023-09-19T00:38:16;99394.31;;;16.83;100.00
72570;BME280;60594;50.204;8.844;2023-09-19T00:40:45;99393.81;;;16.80;100.00
72570;BME280;60594;50.204;8.844;2023-09-19T00:43:12;99397.28;;;16.88;100.00
72570;BME280;60594;50.204;8.844;2023-09-19T00:45:43;99402.38;;;16.83;100.00
72570;BME280;60594;50.204;8.844;2023-09-19T00:48:10;99407.97;;;16.97;100.00
72570;BME280;60594;50.204;8.844;2023-09-19T00:50:38;99406.78;;;16.99;100.00
72570;BME280;60594;50.204;8.844;2023-09-19T00:53:08;99406.31;;;16.96;100.00
72570;BME280;60594;50.204;8.844;2023-09-19T00:55:40;99405.00;;;16.92;100.00
72570;BME280;60594;50.204;8.844;2023-09-19T00:58:08;99412.41;;;16.89;100.00
72570;BME280;60594;50.204;8.844;2023-09-19T01:00:37;99417.34;;;16.86;100.00
72570;BME280;60594;50.204;8.844;2023-09-19T01:03:03;99412.97;;;16.85;100.00
72570;BME280;60594;50.204;8.844;2023-09-19T01:05:33;99411.94;;;16.86;100.00
72570;BME280;60594;50.204;8.844;2023-09-19T01:08:00;99420.88;;;16.87;100.00
72570;BME280;60594;50.204;8.844;2023-09-19T01:10:27;99422.44;;;16.81;100.00
72570;BME280;60594;50.204;8.844;2023-09-19T01:13:03;99424.81;;;16.76;100.00
72570;BME280;60594;50.204;8.844;2023-09-19T01:29:34;99447.88;;;16.78;100.00
72570;BME280;60594;50.204;8.844;2023-09-19T01:32:06;99447.88;;;16.78;100.00
72570;BME280;60594;50.204;8.844;2023-09-19T01:34:50;99448.03;;;16.77;100.00
72570;BME280;60594;50.204;8.844;2023-09-19T01:37:18;99459.25;;;16.80;100.00
72570;BME280;60594;50.204;8.844;2023-09-19T01:39:47;99459.44;;;16.79;100.00
72570;BME280;60594;50.204;8.844;2023-09-19T01:42:23;99457.44;;;16.81;100.00
72570;BME280;60594;50.204;8.844;2023-09-19T01:44:57;99460.28;;;16.79;100.00
72570;BME280;60594;50.204;8.844;2023-09-19T01:47:34;99467.34;;;16.80;100.00
72570;BME280;60594;50.204;8.844;2023-09-19T01:50:42;99466.88;;;16.77;100.00
72570;BME280;60594;50.204;8.844;2023-09-19T01:53:23;99476.34;;;16.73;100.00
72570;BME280;60594;50.204;8.844;2023-09-19T01:55:51;99476.13;;;16.74;100.00
72570;BME280;60594;50.204;8.844;2023-09-19T01:58:35;99480.56;;;16.67;100.00
72570;BME280;60594;50.204;8.844;2023-09-19T02:01:05;99472.69;;;16.66;100.00
72570;BME280;60594;50.204;8.844;2023-09-19T02:03:35;99474.41;;;16.59;100.00
72570;BME280;60594;50.204;8.844;2023-09-19T02:06:04;99474.22;;;16.60;100.00
72570;BME280;60594;50.204;8.844;2023-09-19T02:08:31;99484.25;;;16.66;100.00
72570;BME280;60594;50.204;8.844;2023-09-19T02:10:59;99485.63;;;16.62;100.00
72570;BME280;60594;50.204;8.844;2023-09-19T02:13:26;99484.16;;;16.60;100.00
72570;BME280;60594;50.204;8.844;2023-09-19T02:15:54;99481.16;;;16.55;100.00
72570;BME280;60594;50.204;8.844;2023-09-19T02:18:20;99489.69;;;16.58;100.00
72570;BME280;60594;50.204;8.844;2023-09-19T02:20:47;99483.47;;;16.58;100.00
72570;BME280;60594;50.204;8.844;2023-09-19T02:23:14;99496.09;;;16.57;100.00
72570;BME280;60594;50.204;8.844;2023-09-19T02:25:43;99507.03;;;16.56;100.00
72570;BME280;60594;50.204;8.844;2023-09-19T02:28:17;99500.69;;;16.49;100.00
72570;BME280;60594;50.204;8.844;2023-09-19T02:30:47;99519.53;;;16.49;100.00
72570;BME280;60594;50.204;8.844;2023-09-19T02:33:15;99521.13;;;16.58;100.00
72570;BME280;60594;50.204;8.844;2023-09-19T02:35:41;99510.78;;;16.47;100.00
72570;BME280;60594;50.204;8.844;2023-09-19T02:38:09;99517.19;;;16.46;100.00
72570;BME280;60594;50.204;8.844;2023-09-19T02:40:37;99511.63;;;16.47;100.00
72570;BME280;60594;50.204;8.844;2023-09-19T02:43:04;99513.97;;;16.50;100.00
72570;BME280;60594;50.204;8.844;2023-09-19T02:45:31;99515.75;;;16.58;100.00
72570;BME280;60594;50.204;8.844;2023-09-19T02:47:58;99519.81;;;16.54;100.00
72570;BME280;60594;50.204;8.844;2023-09-19T02:50:24;99522.03;;;16.50;100.00
72570;BME280;60594;50.204;8.844;2023-09-19T02:52:51;99519.06;;;16.45;100.00
72570;BME280;60594;50.204;8.844;2023-09-19T02:55:19;99518.38;;;16.43;100.00
72570;BME280;60594;50.204;8.844;2023-09-19T02:57:55;99516.72;;;16.42;100.00
72570;BME280;60594;50.204;8.844;2023-09-19T03:00:21;99518.38;;;16.43;100.00
72570;BME280;60594;50.204;8.844;2023-09-19T03:02:49;99519.59;;;16.33;100.00
72570;BME280;60594;50.204;8.844;2023-09-19T03:05:16;99517.72;;;16.33;100.00
72570;BME280;60594;50.204;8.844;2023-09-19T03:07:43;99520.06;;;16.36;100.00
72570;BME280;60594;50.204;8.844;2023-09-19T03:10:09;99524.06;;;16.40;100.00
72570;BME280;60594;50.204;8.844;2023-09-19T03:12:36;99529.78;;;16.37;100.00
72570;BME280;60594;50.204;8.844;2023-09-19T03:15:03;99528.00;;;16.30;100.00
72570;BME280;60594;50.204;8.844;2023-09-19T03:17:32;99524.50;;;16.21;100.00
72570;BME280;60594;50.204;8.844;2023-09-19T03:19:58;99518.09;;;16.22;100.00
72570;BME280;60594;50.204;8.844;2023-09-19T03:22:28;99528.38;;;16.19;100.00
72570;BME280;60594;50.204;8.844;2023-09-19T03:24:55;99527.72;;;16.17;100.00
72570;BME280;60594;50.204;8.844;2023-09-19T03:27:22;99532.56;;;16.21;100.00
72570;BME280;60594;50.204;8.844;2023-09-19T03:29:48;99527.19;;;16.21;100.00
72570;BME280;60594;50.204;8.844;2023-09-19T03:32:15;99530.06;;;16.20;100.00
72570;BME280;60594;50.204;8.844;2023-09-19T03:34:41;99532.28;;;16.16;100.00
72570;BME280;60594;50.204;8.844;2023-09-19T03:37:10;99535.59;;;16.18;100.00
72570;BME280;60594;50.204;8.844;2023-09-19T03:39:37;99535.31;;;16.13;100.00
72570;BME280;60594;50.204;8.844;2023-09-19T03:42:05;99539.00;;;16.12;100.00
72570;BME280;60594;50.204;8.844;2023-09-19T03:44:33;99542.38;;;16.06;100.00
72570;BME280;60594;50.204;8.844;2023-09-19T03:47:00;99542.38;;;16.06;100.00
72570;BME280;60594;50.204;8.844;2023-09-19T03:49:27;99546.91;;;16.06;100.00
72570;BME280;60594;50.204;8.844;2023-09-19T03:51:54;99539.69;;;16.06;100.00
72570;BME280;60594;50.204;8.844;2023-09-19T03:54:20;99540.03;;;16.03;100.00
72570;BME280;60594;50.204;8.844;2023-09-19T03:56:47;99559.03;;;16.02;100.00
72570;BME280;60594;50.204;8.844;2023-09-19T03:59:13;99542.22;;;16.08;100.00
72570;BME280;60594;50.204;8.844;2023-09-19T04:01:40;99535.66;;;16.10;100.00
72570;BME280;60594;50.204;8.844;2023-09-19T04:04:07;99537.50;;;16.10;100.00
72570;BME280;60594;50.204;8.844;2023-09-19T04:06:37;99542.72;;;16.03;100.00
72570;BME280;60594;50.204;8.844;2023-09-19T04:09:04;99537.19;;;16.05;100.00
72570;BME280;60594;50.204;8.844;2023-09-19T04:11:33;99540.56;;;16.07;100.00
72570;BME280;60594;50.204;8.844;2023-09-19T04:14:03;99553.50;;;15.95;100.00
72570;BME280;60594;50.204;8.844;2023-09-19T04:16:30;99557.91;;;15.88;100.00
72570;BME280;60594;50.204;8.844;2023-09-19T04:18:56;99556.41;;;15.78;100.00
72570;BME280;60594;50.204;8.844;2023-09-19T04:21:23;99559.94;;;15.78;100.00
72570;BME280;60594;50.204;8.844;2023-09-19T04:23:50;99573.69;;;15.91;100.00
72570;BME280;60594;50.204;8.844;2023-09-19T04:26:17;99575.69;;;15.97;100.00
72570;BME280;60594;50.204;8.844;2023-09-19T04:28:43;99574.69;;;15.98;100.00
72570;BME280;60594;50.204;8.844;2023-09-19T04:31:10;99575.50;;;16.07;100.00
72570;BME280;60594;50.204;8.844;2023-09-19T04:33:37;99579.56;;;15.87;100.00
72570;BME280;60594;50.204;8.844;2023-09-19T04:36:04;99581.09;;;15.81;100.00
72570;BME280;60594;50.204;8.844;2023-09-19T04:38:33;99590.66;;;15.92;100.00
72570;BME280;60594;50.204;8.844;2023-09-19T04:41:00;99590.63;;;16.00;100.00
72570;BME280;60594;50.204;8.844;2023-09-19T04:43:26;99588.25;;;16.05;100.00
72570;BME280;60594;50.204;8.844;2023-09-19T04:45:53;99587.59;;;16.03;100.00
72570;BME280;60594;50.204;8.844;2023-09-19T04:48:22;99603.06;;;16.01;100.00
72570;BME280;60594;50.204;8.844;2023-09-19T04:50:50;99585.44;;;15.90;100.00
72570;BME280;60594;50.204;8.844;2023-09-19T04:53:18;99590.97;;;15.97;100.00
72570;BME280;60594;50.204;8.844;2023-09-19T04:55:51;99590.97;;;15.97;100.00
72570;BME280;60594;50.204;8.844;2023-09-19T04:58:18;99596.50;;;16.03;100.00
72570;BME280;60594;50.204;8.844;2023-09-19T05:00:46;99600.72;;;15.98;99.37
72570;BME280;60594;50.204;8.844;2023-09-19T05:03:12;99600.88;;;15.96;99.95
72570;BME280;60594;50.204;8.844;2023-09-19T05:05:39;99603.56;;;15.96;100.00
72570;BME280;60594;50.204;8.844;2023-09-19T05:08:07;99591.97;;;16.04;99.47
72570;BME280;60594;50.204;8.844;2023-09-19T05:10:35;99604.56;;;16.03;98.84
72570;BME280;60594;50.204;8.844;2023-09-19T05:13:05;99600.34;;;16.09;99.21
72570;BME280;60594;50.204;8.844;2023-09-19T05:15:33;99598.00;;;15.98;98.98
72570;BME280;60594;50.204;8.844;2023-09-19T05:18:01;99600.38;;;16.01;99.16
72570;BME280;60594;50.204;8.844;2023-09-19T05:20:28;99612.59;;;16.11;98.46
72570;BME280;60594;50.204;8.844;2023-09-19T05:23:03;99619.50;;;16.06;98.17
72570;BME280;60594;50.204;8.844;2023-09-19T05:25:32;99606.41;;;15.95;98.93
72570;BME280;60594;50.204;8.844;2023-09-19T05:27:59;99612.66;;;15.95;99.23
72570;BME280;60594;50.204;8.844;2023-09-19T05:30:26;99615.19;;;15.89;100.00
72570;BME280;60594;50.204;8.844;2023-09-19T05:32:55;99619.41;;;15.75;99.88
72570;BME280;60594;50.204;8.844;2023-09-19T05:35:22;99611.31;;;15.91;99.73
72570;BME280;60594;50.204;8.844;2023-09-19T05:37:53;99613.97;;;15.99;98.44
72570;BME280;60594;50.204;8.844;2023-09-19T05:40:21;99606.28;;;15.88;99.01
72570;BME280;60594;50.204;8.844;2023-09-19T05:42:48;99619.19;;;16.01;98.30
72570;BME280;60594;50.204;8.844;2023-09-19T05:45:17;99622.03;;;15.99;98.77
72570;BME280;60594;50.204;8.844;2023-09-19T05:47:50;99617.34;;;15.85;99.22
72570;BME280;60594;50.204;8.844;2023-09-19T05:50:17;99619.72;;;15.80;99.65
72570;BME280;60594;50.204;8.844;2023-09-19T05:52:51;99627.13;;;15.86;99.97
72570;BME280;60594;50.204;8.844;2023-09-19T05:55:18;99635.34;;;15.85;100.00
72570;BME280;60594;50.204;8.844;2023-09-19T05:57:52;99647.09;;;15.84;100.00
72570;BME280;60594;50.204;8.844;2023-09-19T06:00:20;99650.78;;;15.83;100.00
72570;BME280;60594;50.204;8.844;2023-09-19T06:02:56;99658.34;;;15.95;100.00
72570;BME280;60594;50.204;8.844;2023-09-19T06:05:25;99663.22;;;15.84;100.00
72570;BME280;60594;50.204;8.844;2023-09-19T06:07:57;99660.34;;;15.93;100.00
72570;BME280;60594;50.204;8.844;2023-09-19T06:10:27;99654.97;;;15.93;100.00
72570;BME280;60594;50.204;8.844;2023-09-19T06:12:54;99660.72;;;15.90;100.00
72570;BME280;60594;50.204;8.844;2023-09-19T06:15:21;99664.53;;;15.88;100.00
72570;BME280;60594;50.204;8.844;2023-09-19T06:17:55;99661.56;;;15.75;100.00
72570;BME280;60594;50.204;8.844;2023-09-19T06:20:23;99661.72;;;15.73;100.00
72570;BME280;60594;50.204;8.844;2023-09-19T06:22:50;99667.75;;;15.83;100.00
72570;BME280;60594;50.204;8.844;2023-09-19T06:25:17;99677.81;;;15.81;100.00
72570;BME280;60594;50.204;8.844;2023-09-19T06:27:49;99681.53;;;15.88;99.37
72570;BME280;60594;50.204;8.844;2023-09-19T06:30:18;99683.38;;;15.96;98.89
72570;BME280;60594;50.204;8.844;2023-09-19T06:32:45;99684.88;;;15.98;98.79
72570;BME280;60594;50.204;8.844;2023-09-19T06:35:13;99691.44;;;15.96;98.88
72570;BME280;60594;50.204;8.844;2023-09-19T06:37:40;99691.59;;;16.02;96.84
72570;BME280;60594;50.204;8.844;2023-09-19T06:40:11;99703.88;;;15.97;97.61
72570;BME280;60594;50.204;8.844;2023-09-19T06:42:45;99701.19;;;15.97;98.07
72570;BME280;60594;50.204;8.844;2023-09-19T06:45:13;99703.69;;;15.98;97.02
72570;BME280;60594;50.204;8.844;2023-09-19T06:47:45;99707.41;;;15.97;97.05
72570;BME280;60594;50.204;8.844;2023-09-19T06:50:12;99717.97;;;15.91;98.11
72570;BME280;60594;50.204;8.844;2023-09-19T06:52:41;99719.31;;;16.03;97.57
72570;BME280;60594;50.204;8.844;2023-09-19T06:55:08;99716.09;;;16.15;97.69
72570;BME280;60594;50.204;8.844;2023-09-19T06:57:39;99715.47;;;16.05;97.76
72570;BME280;60594;50.204;8.844;2023-09-19T07:00:11;99723.00;;;16.10;98.29
72570;BME280;60594;50.204;8.844;2023-09-19T07:03:00;99725.50;;;16.11;98.63
72570;BME280;60594;50.204;8.844;2023-09-19T07:05:31;99717.13;;;16.14;98.78
72570;BME280;60594;50.204;8.844;2023-09-19T07:07:59;99726.38;;;16.12;97.31
72570;BME280;60594;50.204;8.844;2023-09-19T07:10:25;99737.44;;;16.25;97.86
72570;BME280;60594;50.204;8.844;2023-09-19T07:12:55;99744.81;;;16.31;98.32
72570;BME280;60594;50.204;8.844;2023-09-19T07:15:22;99740.94;;;16.33;96.97
72570;BME280;60594;50.204;8.844;2023-09-19T07:17:52;99747.19;;;16.26;96.02
72570;BME280;60594;50.204;8.844;2023-09-19T07:20:20;99752.72;;;16.32;95.84
72570;BME280;60594;50.204;8.844;2023-09-19T07:22:47;99751.38;;;16.36;94.36
72570;BME280;60594;50.204;8.844;2023-09-19T07:25:17;99766.66;;;16.28;94.64
72570;BME280;60594;50.204;8.844;2023-09-19T07:27:44;99759.78;;;16.25;95.29
72570;BME280;60594;50.204;8.844;2023-09-19T07:30:11;99766.00;;;16.34;95.03
72570;BME280;60594;50.204;8.844;2023-09-19T07:32:38;99767.34;;;16.38;93.60
72570;BME280;60594;50.204;8.844;2023-09-19T07:35:05;99766.03;;;16.42;91.99
72570;BME280;60594;50.204;8.844;2023-09-19T07:37:32;99772.03;;;16.36;91.98
72570;BME280;60594;50.204;8.844;2023-09-19T07:40:03;99774.94;;;16.42;91.69
72570;BME280;60594;50.204;8.844;2023-09-19T07:42:38;99773.91;;;16.43;90.46
72570;BME280;60594;50.204;8.844;2023-09-19T07:45:08;99788.22;;;16.44;90.64
72570;BME280;60594;50.204;8.844;2023-09-19T07:47:35;99782.31;;;16.48;91.01
72570;BME280;60594;50.204;8.844;2023-09-19T07:50:02;99784.84;;;16.50;90.26
72570;BME280;60594;50.204;8.844;2023-09-19T07:52:29;99783.00;;;16.50;89.16
72570;BME280;60594;50.204;8.844;2023-09-19T07:54:55;99785.84;;;16.49;90.04
72570;BME280;60594;50.204;8.844;2023-09-19T07:57:23;99792.09;;;16.49;88.40
72570;BME280;60594;50.204;8.844;2023-09-19T07:59:50;99793.75;;;16.50;89.59
72570;BME280;60594;50.204;8.844;2023-09-19T08:02:16;99788.53;;;16.49;87.78
72570;BME280;60594;50.204;8.844;2023-09-19T08:04:45;99790.91;;;16.52;87.99
72570;BME280;60594;50.204;8.844;2023-09-19T08:07:12;99788.03;;;16.53;88.56
72570;BME280;60594;50.204;8.844;2023-09-19T08:09:42;99785.50;;;16.60;88.87
72570;BME280;60594;50.204;8.844;2023-09-19T08:12:12;99792.03;;;16.65;87.58
72570;BME280;60594;50.204;8.844;2023-09-19T08:14:39;99801.78;;;16.66;86.10
72570;BME280;60594;50.204;8.844;2023-09-19T08:17:07;99791.72;;;16.60;82.52
72570;BME280;60594;50.204;8.844;2023-09-19T08:19:37;99794.59;;;16.59;81.31
72570;BME280;60594;50.204;8.844;2023-09-19T08:22:08;99788.66;;;16.63;82.28
72570;BME280;60594;50.204;8.844;2023-09-19T08:24:37;99791.19;;;16.65;80.77
72570;BME280;60594;50.204;8.844;2023-09-19T08:27:04;99800.78;;;16.75;80.70
72570;BME280;60594;50.204;8.844;2023-09-19T08:29:31;99804.28;;;16.84;79.64
72570;BME280;60594;50.204;8.844;2023-09-19T08:31:57;99802.25;;;16.86;79.22
72570;BME280;60594;50.204;8.844;2023-09-19T08:34:24;99803.41;;;16.92;79.81
72570;BME280;60594;50.204;8.844;2023-09-19T08:36:52;99809.94;;;17.05;77.43
72570;BME280;60594;50.204;8.844;2023-09-19T08:39:25;99806.06;;;17.00;77.67
72570;BME280;60594;50.204;8.844;2023-09-19T08:41:59;99817.31;;;17.11;75.33
72570;BME280;60594;50.204;8.844;2023-09-19T08:44:26;99815.78;;;17.17;72.94
72570;BME280;60594;50.204;8.844;2023-09-19T08:47:05;99821.16;;;17.25;72.44
72570;BME280;60594;50.204;8.844;2023-09-19T08:52:32;99818.25;;;17.34;73.54
72570;BME280;60594;50.204;8.844;2023-09-19T08:55:02;99818.53;;;17.39;75.08
72570;BME280;60594;50.204;8.844;2023-09-19T08:57:36;99816.22;;;17.28;74.19
72570;BME280;60594;50.204;8.844;2023-09-19T09:00:09;99820.22;;;17.48;71.74
72570;BME280;60594;50.204;8.844;2023-09-19T09:02:38;99818.16;;;17.58;71.29
72570;BME280;60594;50.204;8.844;2023-09-19T09:05:09;99824.31;;;17.75;71.29
72570;BME280;60594;50.204;8.844;2023-09-19T09:07:40;99812.25;;;17.85;71.54
72570;BME280;60594;50.204;8.844;2023-09-19T09:10:07;99817.66;;;17.85;68.39
72570;BME280;60594;50.204;8.844;2023-09-19T09:12:37;99819.84;;;17.82;68.32
72570;BME280;60594;50.204;8.844;2023-09-19T09:15:06;99824.78;;;17.78;68.90
72570;BME280;60594;50.204;8.844;2023-09-19T09:17:35;99816.69;;;17.78;68.11
72570;BME280;60594;50.204;8.844;2023-09-19T09:20:01;99829.09;;;17.87;68.48
72570;BME280;60594;50.204;8.844;2023-09-19T09:22:29;99816.41;;;17.96;68.76
72570;BME280;60594;50.204;8.844;2023-09-19T09:24:57;99818.09;;;17.97;66.47
72570;BME280;60594;50.204;8.844;2023-09-19T09:27:24;99822.63;;;17.96;67.12
72570;BME280;60594;50.204;8.844;2023-09-19T09:29:53;99829.09;;;17.87;67.46
72570;BME280;60594;50.204;8.844;2023-09-19T09:32:30;99811.88;;;17.66;67.87
72570;BME280;60594;50.204;8.844;2023-09-19T09:35:02;99827.78;;;17.53;68.59
72570;BME280;60594;50.204;8.844;2023-09-19T09:37:35;99836.81;;;17.60;69.77
72570;BME280;60594;50.204;8.844;2023-09-19T09:40:05;99835.72;;;17.54;66.58
72570;BME280;60594;50.204;8.844;2023-09-19T09:42:40;99836.47;;;17.63;68.48
72570;BME280;60594;50.204;8.844;2023-09-19T09:45:14;99832.81;;;17.56;66.53
72570;BME280;60594;50.204;8.844;2023-09-19T09:47:45;99830.31;;;17.54;66.27
72570;BME280;60594;50.204;8.844;2023-09-19T09:50:34;99835.34;;;17.57;67.14
72570;BME280;60594;50.204;8.844;2023-09-19T09:53:21;99832.63;;;17.88;67.31
72570;BME280;60594;50.204;8.844;2023-09-19T09:56:05;99828.22;;;17.95;64.86
72570;BME280;60594;50.204;8.844;2023-09-19T09:58:36;99834.69;;;17.86;65.68
72570;BME280;60594;50.204;8.844;2023-09-19T10:01:04;99835.38;;;17.80;66.67
72570;BME280;60594;50.204;8.844;2023-09-19T10:03:42;99834.88;;;17.76;66.94
72570;BME280;60594;50.204;8.844;2023-09-19T10:06:17;99846.34;;;17.78;65.17
72570;BME280;60594;50.204;8.844;2023-09-19T10:11:48;99825.63;;;17.79;65.86
72570;BME280;60594;50.204;8.844;2023-09-19T10:14:26;99838.47;;;17.69;66.67
72570;BME280;60594;50.204;8.844;2023-09-19T10:16:59;99832.88;;;17.78;65.82
72570;BME280;60594;50.204;8.844;2023-09-19T10:19:37;99837.41;;;17.78;65.43
72570;BME280;60594;50.204;8.844;2023-09-19T10:22:05;99841.06;;;17.85;65.52
72570;BME280;60594;50.204;8.844;2023-09-19T10:24:35;99828.16;;;18.03;64.19
72570;BME280;60594;50.204;8.844;2023-09-19T10:27:05;99828.97;;;18.26;65.22
72570;BME280;60594;50.204;8.844;2023-09-19T10:29:36;99833.25;;;18.43;62.42
72570;BME280;60594;50.204;8.844;2023-09-19T10:32:06;99825.94;;;18.51;61.26
72570;BME280;60594;50.204;8.844;2023-09-19T10:34:35;99830.53;;;18.65;61.77
72570;BME280;60594;50.204;8.844;2023-09-19T10:37:02;99829.50;;;18.66;63.01
72570;BME280;60594;50.204;8.844;2023-09-19T10:39:32;99830.81;;;18.85;61.42
72570;BME280;60594;50.204;8.844;2023-09-19T10:42:02;99843.88;;;18.96;61.19
72570;BME280;60594;50.204;8.844;2023-09-19T10:44:32;99832.34;;;19.16;59.33
72570;BME280;60594;50.204;8.844;2023-09-19T10:46:59;99830.03;;;19.28;58.54
72570;BME280;60594;50.204;8.844;2023-09-19T10:49:26;99836.94;;;19.30;59.33
72570;BME280;60594;50.204;8.844;2023-09-19T10:51:55;99834.41;;;19.29;60.32
72570;BME280;60594;50.204;8.844;2023-09-19T10:54:27;99833.28;;;19.09;59.58
72570;BME280;60594;50.204;8.844;2023-09-19T10:56:56;99835.53;;;19.20;59.33
72570;BME280;60594;50.204;8.844;2023-09-19T10:59:25;99837.00;;;19.22;55.31
72570;BME280;60594;50.204;8.844;2023-09-19T11:01:53;99844.41;;;19.28;55.82
72570;BME280;60594;50.204;8.844;2023-09-19T11:04:30;99838.53;;;19.25;56.66
72570;BME280;60594;50.204;8.844;2023-09-19T11:07:01;99834.97;;;18.95;55.87
72570;BME280;60594;50.204;8.844;2023-09-19T11:09:47;99836.03;;;18.72;56.36
72570;BME280;60594;50.204;8.844;2023-09-19T11:14:55;99825.59;;;18.54;56.29
72570;BME280;60594;50.204;8.844;2023-09-19T11:17:36;99830.38;;;18.67;55.88
72570;BME280;60594;50.204;8.844;2023-09-19T11:30:40;99819.50;;;19.33;55.23
72570;BME280;60594;50.204;8.844;2023-09-19T11:33:26;99815.69;;;19.27;54.39
72570;BME280;60594;50.204;8.844;2023-09-19T11:36:12;99807.38;;;19.29;54.63
72570;BME280;60594;50.204;8.844;2023-09-19T11:43:48;99790.75;;;19.61;53.09
72570;BME280;60594;50.204;8.844;2023-09-19T11:46:20;99796.03;;;19.69;52.70
72570;BME280;60594;50.204;8.844;2023-09-19T11:48:51;99795.53;;;19.59;53.33
72570;BME280;60594;50.204;8.844;2023-09-19T11:51:19;99790.13;;;19.80;52.48
72570;BME280;60594;50.204;8.844;2023-09-19T11:53:50;99795.97;;;19.62;54.12
72570;BME280;60594;50.204;8.844;2023-09-19T11:56:19;99789.69;;;19.76;53.05
72570;BME280;60594;50.204;8.844;2023-09-19T11:58:49;99791.09;;;19.93;52.91
72570;BME280;60594;50.204;8.844;2023-09-19T12:01:42;99800.88;;;20.30;53.12
72570;BME280;60594;50.204;8.844;2023-09-19T12:04:12;99794.63;;;20.30;52.86
72570;BME280;60594;50.204;8.844;2023-09-19T12:06:41;99802.56;;;20.59;53.82
72570;BME280;60594;50.204;8.844;2023-09-19T12:09:13;99801.34;;;20.61;50.79
72570;BME280;60594;50.204;8.844;2023-09-19T12:11:43;99802.56;;;20.59;50.61
72570;BME280;60594;50.204;8.844;2023-09-19T12:14:22;99800.28;;;20.62;50.20
72570;BME280;60594;50.204;8.844;2023-09-19T12:16:57;99797.16;;;20.59;49.48
72570;BME280;60594;50.204;8.844;2023-09-19T12:19:27;99793.47;;;20.66;50.27
72570;BME280;60594;50.204;8.844;2023-09-19T12:21:56;99803.66;;;20.92;50.06
72570;BME280;60594;50.204;8.844;2023-09-19T12:24:27;99795.84;;;21.03;47.33
72570;BME280;60594;50.204;8.844;2023-09-19T12:27:03;99809.06;;;20.92;47.80
72570;BME280;60594;50.204;8.844;2023-09-19T12:29:49;99792.78;;;20.58;48.58
72570;BME280;60594;50.204;8.844;2023-09-19T12:32:16;99792.47;;;20.74;48.84
72570;BME280;60594;50.204;8.844;2023-09-19T12:34:52;99790.63;;;20.74;48.90
72570;BME280;60594;50.204;8.844;2023-09-19T12:37:20;99774.97;;;20.76;47.73
72570;BME280;60594;50.204;8.844;2023-09-19T12:39:51;99783.81;;;20.85;47.98
72570;BME280;60594;50.204;8.844;2023-09-19T12:42:25;99780.31;;;20.91;47.62
72570;BME280;60594;50.204;8.844;2023-09-19T12:44:58;99770.63;;;20.75;47.89
72570;BME280;60594;50.204;8.844;2023-09-19T12:47:28;99761.22;;;20.71;46.87
72570;BME280;60594;50.204;8.844;2023-09-19T12:50:09;99767.47;;;20.72;48.05
72570;BME280;60594;50.204;8.844;2023-09-19T12:52:52;99765.03;;;20.83;47.37
72570;BME280;60594;50.204;8.844;2023-09-19T12:55:24;99761.78;;;20.94;46.39
72570;BME280;60594;50.204;8.844;2023-09-19T13:05:49;99750.16;;;20.94;47.38
72570;BME280;60594;50.204;8.844;2023-09-19T13:08:30;99748.81;;;20.90;47.97
72570;BME280;60594;50.204;8.844;2023-09-19T13:13:51;99749.81;;;20.82;47.18
72570;BME280;60594;50.204;8.844;2023-09-19T13:16:27;99756.91;;;20.83;47.58
72570;BME280;60594;50.204;8.844;2023-09-19T13:18:54;99756.41;;;21.01;46.40
72570;BME280;60594;50.204;8.844;2023-09-19T13:23:56;99755.31;;;21.29;46.14
72570;BME280;60594;50.204;8.844;2023-09-19T13:26:42;99742.56;;;21.23;46.84
72570;BME280;60594;50.204;8.844;2023-09-19T13:29:08;99740.53;;;21.38;46.66
72570;BME280;60594;50.204;8.844;2023-09-19T13:31:35;99740.53;;;21.38;46.76
72570;BME280;60594;50.204;8.844;2023-09-19T13:34:02;99745.84;;;21.12;44.95
72570;BME280;60594;50.204;8.844;2023-09-19T13:36:29;99752.56;;;20.89;46.45
72570;BME280;60594;50.204;8.844;2023-09-19T13:38:56;99752.69;;;20.74;46.08
72570;BME280;60594;50.204;8.844;2023-09-19T13:41:24;99743.50;;;20.69;46.65
72570;BME280;60594;50.204;8.844;2023-09-19T13:43:50;99743.19;;;20.57;47.57
72570;BME280;60594;50.204;8.844;2023-09-19T13:46:17;99742.59;;;20.62;47.21
72570;BME280;60594;50.204;8.844;2023-09-19T13:48:51;99743.78;;;20.53;46.56
72570;BME280;60594;50.204;8.844;2023-09-19T13:51:21;99743.16;;;20.51;45.85
72570;BME280;60594;50.204;8.844;2023-09-19T13:53:52;99744.53;;;20.40;46.08
72570;BME280;60594;50.204;8.844;2023-09-19T13:56:18;99735.38;;;20.41;46.09
72570;BME280;60594;50.204;8.844;2023-09-19T13:58:45;99743.00;;;20.31;46.90
72570;BME280;60594;50.204;8.844;2023-09-19T14:01:11;99727.41;;;20.33;46.97